KNE101 OEDF-OEJN
Flight info
| Callsign | KNE101 |
|---|---|
| Flight time | 1h 56m |
| Altitude | 36000 |
| Route | MIBRA N687 KIA G782 RGB M309 VEMEM |
| Aircraft | A20N/M-SDE2E3FGHIRWXY/LB1 |
Departure
| Time | 2026-05-05 19:37 |
|---|---|
| Airport | King Fahd International Airport (OEDF) |
Arrival
| Time | 2026-05-05 21:33 |
|---|---|
| Airport | King Abdulaziz International Airport (OEJN) |
| Time | Latitude | Longitude | Altitude | Speed | Heading |
|---|---|---|---|---|---|
| 2026-05-05 19:19 | 26.46270 | 49.79420 | 60 ft | 0 kts | 265° |
| 2026-05-05 19:22 | 26.46270 | 49.79428 | 60 ft | 2 kts | 260° |
| 2026-05-05 19:22 | 26.46274 | 49.79444 | 60 ft | 2 kts | 259° |
| 2026-05-05 19:23 | 26.46276 | 49.79458 | 60 ft | 2 kts | 260° |
| 2026-05-05 19:23 | 26.46279 | 49.79474 | 59 ft | 1 kts | 259° |
| 2026-05-05 19:23 | 26.46280 | 49.79489 | 59 ft | 2 kts | 269° |
| 2026-05-05 19:23 | 26.46280 | 49.79500 | 59 ft | 1 kts | 260° |
| 2026-05-05 19:24 | 26.46289 | 49.79512 | 59 ft | 2 kts | 204° |
| 2026-05-05 19:24 | 26.46297 | 49.79515 | 59 ft | 1 kts | 177° |
| 2026-05-05 19:24 | 26.46304 | 49.79514 | 59 ft | 0 kts | 176° |
| 2026-05-05 19:27 | 26.46303 | 49.79514 | 59 ft | 0 kts | 175° |
| 2026-05-05 19:28 | 26.46294 | 49.79515 | 59 ft | 2 kts | 175° |
| 2026-05-05 19:28 | 26.46277 | 49.79516 | 59 ft | 2 kts | 175° |
| 2026-05-05 19:28 | 26.46252 | 49.79518 | 59 ft | 3 kts | 175° |
| 2026-05-05 19:28 | 26.46227 | 49.79521 | 59 ft | 2 kts | 175° |
| 2026-05-05 19:29 | 26.46208 | 49.79523 | 60 ft | 1 kts | 175° |
| 2026-05-05 19:29 | 26.46197 | 49.79523 | 60 ft | 0 kts | 175° |
| 2026-05-05 19:29 | 26.46194 | 49.79524 | 60 ft | 0 kts | 175° |
| 2026-05-05 19:30 | 26.46189 | 49.79524 | 60 ft | 2 kts | 175° |
| 2026-05-05 19:30 | 26.46174 | 49.79526 | 61 ft | 1 kts | 175° |
| 2026-05-05 19:30 | 26.46172 | 49.79526 | 61 ft | 0 kts | 175° |
| 2026-05-05 19:31 | 26.46170 | 49.79526 | 61 ft | 2 kts | 175° |
| 2026-05-05 19:31 | 26.46105 | 49.79541 | 63 ft | 10 kts | 166° |
| 2026-05-05 19:31 | 26.46029 | 49.79562 | 63 ft | 11 kts | 165° |
| 2026-05-05 19:32 | 26.45948 | 49.79520 | 61 ft | 12 kts | 237° |
| 2026-05-05 19:32 | 26.45908 | 49.79420 | 63 ft | 11 kts | 237° |
| 2026-05-05 19:32 | 26.45820 | 49.79401 | 62 ft | 12 kts | 168° |
| 2026-05-05 19:32 | 26.45730 | 49.79426 | 62 ft | 14 kts | 165° |
| 2026-05-05 19:33 | 26.45629 | 49.79459 | 60 ft | 15 kts | 163° |
| 2026-05-05 19:33 | 26.45518 | 49.79491 | 57 ft | 17 kts | 184° |
| 2026-05-05 19:33 | 26.45443 | 49.79406 | 57 ft | 12 kts | 255° |
| 2026-05-05 19:33 | 26.45439 | 49.79379 | 58 ft | 0 kts | 262° |
| 2026-05-05 19:34 | 26.45438 | 49.79373 | 58 ft | 1 kts | 262° |
| 2026-05-05 19:35 | 26.45437 | 49.79360 | 59 ft | 0 kts | 262° |
| 2026-05-05 19:35 | 26.45437 | 49.79359 | 59 ft | 1 kts | 262° |
| 2026-05-05 19:35 | 26.45424 | 49.79259 | 62 ft | 15 kts | 271° |
| 2026-05-05 19:36 | 26.45487 | 49.79180 | 61 ft | 15 kts | 337° |
| 2026-05-05 19:36 | 26.45593 | 49.79145 | 60 ft | 16 kts | 345° |
| 2026-05-05 19:36 | 26.45926 | 49.79058 | 62 ft | 90 kts | 349° |
| 2026-05-05 19:36 | 26.46777 | 49.78782 | 64 ft | 160 kts | 348° |
| 2026-05-05 19:37 | 26.47986 | 49.78488 | 435 ft | 187 kts | 350° |
| 2026-05-05 19:37 | 26.49298 | 49.78177 | 1112 ft | 200 kts | 351° |
| 2026-05-05 19:37 | 26.50662 | 49.77907 | 1956 ft | 202 kts | 2° |
| 2026-05-05 19:37 | 26.51997 | 49.78302 | 2708 ft | 205 kts | 37° |
| 2026-05-05 19:38 | 26.52919 | 49.79538 | 3284 ft | 220 kts | 73° |
| 2026-05-05 19:38 | 26.53079 | 49.81227 | 3814 ft | 227 kts | 105° |
| 2026-05-05 19:38 | 26.52379 | 49.82811 | 4244 ft | 239 kts | 135° |
| 2026-05-05 19:38 | 26.50968 | 49.83813 | 4739 ft | 246 kts | 164° |
| 2026-05-05 19:39 | 26.49278 | 49.83923 | 4987 ft | 249 kts | 192° |
| 2026-05-05 19:39 | 26.47718 | 49.83084 | 5009 ft | 251 kts | 221° |
| 2026-05-05 19:39 | 26.46504 | 49.81630 | 5030 ft | 265 kts | 227° |
| 2026-05-05 19:39 | 26.45250 | 49.80062 | 5029 ft | 271 kts | 227° |
| 2026-05-05 19:40 | 26.43988 | 49.78490 | 5019 ft | 272 kts | 227° |
| 2026-05-05 19:40 | 26.42729 | 49.76922 | 5030 ft | 273 kts | 227° |
| 2026-05-05 19:40 | 26.41465 | 49.75346 | 5034 ft | 273 kts | 227° |
| 2026-05-05 19:40 | 26.40188 | 49.73757 | 5024 ft | 273 kts | 227° |
| 2026-05-05 19:41 | 26.38922 | 49.72179 | 5025 ft | 273 kts | 227° |
| 2026-05-05 19:41 | 26.37662 | 49.70608 | 5026 ft | 273 kts | 227° |
| 2026-05-05 19:41 | 26.36395 | 49.69031 | 5026 ft | 273 kts | 227° |
| 2026-05-05 19:41 | 26.35124 | 49.67451 | 5030 ft | 273 kts | 227° |
| 2026-05-05 19:42 | 26.33847 | 49.65862 | 5029 ft | 273 kts | 227° |
| 2026-05-05 19:42 | 26.32588 | 49.64299 | 5026 ft | 273 kts | 227° |
| 2026-05-05 19:42 | 26.31333 | 49.62691 | 5029 ft | 274 kts | 231° |
| 2026-05-05 19:42 | 26.30266 | 49.60946 | 5049 ft | 278 kts | 239° |
| 2026-05-05 19:43 | 26.29337 | 49.58993 | 5535 ft | 285 kts | 242° |
| 2026-05-05 19:43 | 26.28464 | 49.57075 | 6409 ft | 282 kts | 243° |
| 2026-05-05 19:43 | 26.27588 | 49.55138 | 7219 ft | 282 kts | 243° |
| 2026-05-05 19:43 | 26.26703 | 49.53186 | 7994 ft | 283 kts | 243° |
| 2026-05-05 19:44 | 26.25815 | 49.51234 | 8760 ft | 284 kts | 243° |
| 2026-05-05 19:44 | 26.24931 | 49.49297 | 9520 ft | 286 kts | 243° |
| 2026-05-05 19:44 | 26.24028 | 49.47316 | 10300 ft | 287 kts | 243° |
| 2026-05-05 19:44 | 26.23116 | 49.45321 | 10839 ft | 298 kts | 243° |
| 2026-05-05 19:45 | 26.22155 | 49.43219 | 11163 ft | 316 kts | 243° |
| 2026-05-05 19:45 | 26.21123 | 49.40967 | 11552 ft | 331 kts | 243° |
| 2026-05-05 19:45 | 26.20070 | 49.38667 | 12192 ft | 337 kts | 243° |
| 2026-05-05 19:45 | 26.19006 | 49.36346 | 12974 ft | 339 kts | 243° |
| 2026-05-05 19:46 | 26.17945 | 49.34036 | 13722 ft | 341 kts | 242° |
| 2026-05-05 19:46 | 26.16862 | 49.31676 | 14400 ft | 345 kts | 242° |
| 2026-05-05 19:46 | 26.15776 | 49.29313 | 14845 ft | 347 kts | 242° |
| 2026-05-05 19:46 | 26.14670 | 49.26902 | 15044 ft | 348 kts | 242° |
| 2026-05-05 19:47 | 26.13578 | 49.24524 | 15063 ft | 347 kts | 242° |
| 2026-05-05 19:47 | 26.12472 | 49.22120 | 15144 ft | 352 kts | 242° |
| 2026-05-05 19:47 | 26.11358 | 49.19701 | 15668 ft | 354 kts | 242° |
| 2026-05-05 19:47 | 26.10238 | 49.17272 | 16004 ft | 353 kts | 242° |
| 2026-05-05 19:48 | 26.09118 | 49.14844 | 16067 ft | 352 kts | 243° |
| 2026-05-05 19:48 | 26.07992 | 49.12399 | 16066 ft | 351 kts | 243° |
| 2026-05-05 19:48 | 26.06884 | 49.09992 | 16068 ft | 351 kts | 242° |
| 2026-05-05 19:48 | 26.05768 | 49.07572 | 16066 ft | 351 kts | 242° |
| 2026-05-05 19:49 | 26.04657 | 49.05168 | 16072 ft | 351 kts | 242° |
| 2026-05-05 19:49 | 26.03912 | 49.03556 | 16078 ft | 351 kts | 242° |
| 2026-05-05 19:49 | 26.02432 | 49.00368 | 16077 ft | 352 kts | 242° |
| 2026-05-05 19:49 | 26.01255 | 48.97939 | 16400 ft | 359 kts | 241° |
| 2026-05-05 19:50 | 26.00058 | 48.95501 | 17189 ft | 359 kts | 241° |
| 2026-05-05 19:50 | 25.98874 | 48.93089 | 17900 ft | 360 kts | 241° |
| 2026-05-05 19:50 | 25.97665 | 48.90619 | 18554 ft | 363 kts | 241° |
| 2026-05-05 19:50 | 25.96468 | 48.88171 | 19179 ft | 366 kts | 242° |
| 2026-05-05 19:51 | 25.95242 | 48.85672 | 19791 ft | 369 kts | 241° |
| 2026-05-05 19:51 | 25.93933 | 48.83249 | 20410 ft | 371 kts | 238° |
| 2026-05-05 19:51 | 25.92564 | 48.80837 | 21008 ft | 373 kts | 238° |
| 2026-05-05 19:51 | 25.91176 | 48.78398 | 21605 ft | 376 kts | 238° |
| 2026-05-05 19:52 | 25.89774 | 48.75937 | 22183 ft | 379 kts | 238° |
| 2026-05-05 19:52 | 25.88364 | 48.73460 | 22757 ft | 381 kts | 238° |
| 2026-05-05 19:52 | 25.86935 | 48.70957 | 23328 ft | 384 kts | 238° |
| 2026-05-05 19:52 | 25.85502 | 48.68444 | 23924 ft | 386 kts | 238° |
| 2026-05-05 19:53 | 25.84082 | 48.65955 | 24471 ft | 387 kts | 239° |
| 2026-05-05 19:53 | 25.82640 | 48.63430 | 25019 ft | 389 kts | 239° |
| 2026-05-05 19:53 | 25.81182 | 48.60876 | 25538 ft | 391 kts | 239° |
| 2026-05-05 19:53 | 25.79737 | 48.58349 | 26097 ft | 390 kts | 239° |
| 2026-05-05 19:54 | 25.78282 | 48.55806 | 26566 ft | 392 kts | 239° |
| 2026-05-05 19:54 | 25.76830 | 48.53265 | 26980 ft | 396 kts | 239° |
| 2026-05-05 19:54 | 25.75353 | 48.50684 | 27436 ft | 397 kts | 239° |
| 2026-05-05 19:54 | 25.73874 | 48.48100 | 27876 ft | 398 kts | 239° |
| 2026-05-05 19:55 | 25.72382 | 48.45495 | 28301 ft | 399 kts | 239° |
| 2026-05-05 19:55 | 25.70901 | 48.42911 | 28697 ft | 401 kts | 239° |
| 2026-05-05 19:55 | 25.69399 | 48.40287 | 29076 ft | 402 kts | 240° |
| 2026-05-05 19:55 | 25.68009 | 48.37656 | 29594 ft | 399 kts | 243° |
| 2026-05-05 19:56 | 25.66697 | 48.34954 | 30134 ft | 395 kts | 243° |
| 2026-05-05 19:56 | 25.65411 | 48.32299 | 30641 ft | 393 kts | 243° |
| 2026-05-05 19:56 | 25.64124 | 48.29642 | 31123 ft | 391 kts | 243° |
| 2026-05-05 19:56 | 25.62855 | 48.27017 | 31576 ft | 389 kts | 242° |
| 2026-05-05 19:57 | 25.61568 | 48.24357 | 32026 ft | 387 kts | 242° |
| 2026-05-05 19:57 | 25.60302 | 48.21748 | 32493 ft | 385 kts | 242° |
| 2026-05-05 19:57 | 25.59052 | 48.19165 | 32954 ft | 382 kts | 242° |
| 2026-05-05 19:57 | 25.57793 | 48.16572 | 33408 ft | 380 kts | 242° |
| 2026-05-05 19:58 | 25.56554 | 48.14019 | 33834 ft | 379 kts | 242° |
| 2026-05-05 19:58 | 25.55313 | 48.11460 | 34252 ft | 377 kts | 242° |
| 2026-05-05 19:58 | 25.54073 | 48.08904 | 34652 ft | 376 kts | 242° |
| 2026-05-05 19:58 | 25.52840 | 48.06366 | 34977 ft | 376 kts | 242° |
| 2026-05-05 19:59 | 25.51601 | 48.03815 | 35244 ft | 377 kts | 242° |
| 2026-05-05 19:59 | 25.50374 | 48.01291 | 35490 ft | 378 kts | 242° |
| 2026-05-05 19:59 | 25.49123 | 47.98720 | 35730 ft | 379 kts | 242° |
| 2026-05-05 19:59 | 25.47867 | 47.96137 | 35941 ft | 380 kts | 242° |
| 2026-05-05 20:00 | 25.46614 | 47.93565 | 36137 ft | 382 kts | 242° |
| 2026-05-05 20:00 | 25.44095 | 47.88399 | 36174 ft | 383 kts | 242° |
| 2026-05-05 20:01 | 25.41561 | 47.83208 | 36174 ft | 383 kts | 242° |
| 2026-05-05 20:01 | 25.39036 | 47.78038 | 36176 ft | 383 kts | 242° |
| 2026-05-05 20:02 | 25.36505 | 47.72865 | 36183 ft | 385 kts | 242° |
| 2026-05-05 20:02 | 25.33960 | 47.67668 | 36190 ft | 384 kts | 242° |
| 2026-05-05 20:03 | 25.31416 | 47.62478 | 36194 ft | 384 kts | 242° |
| 2026-05-05 20:03 | 25.28880 | 47.57306 | 36200 ft | 384 kts | 242° |
| 2026-05-05 20:04 | 25.26331 | 47.52121 | 36204 ft | 384 kts | 242° |
| 2026-05-05 20:04 | 25.23774 | 47.46914 | 36208 ft | 389 kts | 242° |
| 2026-05-05 20:05 | 25.21181 | 47.41649 | 36212 ft | 395 kts | 242° |
| 2026-05-05 20:05 | 25.18558 | 47.36325 | 36216 ft | 396 kts | 242° |
| 2026-05-05 20:06 | 25.15914 | 47.30963 | 36223 ft | 396 kts | 242° |
| 2026-05-05 20:06 | 25.13284 | 47.25640 | 36224 ft | 396 kts | 242° |
| 2026-05-05 20:07 | 25.10666 | 47.20344 | 36230 ft | 397 kts | 242° |
| 2026-05-05 20:07 | 25.08017 | 47.14991 | 36231 ft | 397 kts | 242° |
| 2026-05-05 20:08 | 25.05387 | 47.09681 | 36234 ft | 397 kts | 241° |
| 2026-05-05 20:08 | 25.02725 | 47.04318 | 36254 ft | 397 kts | 241° |
| 2026-05-05 20:09 | 25.00094 | 46.99023 | 36265 ft | 397 kts | 241° |
| 2026-05-05 20:09 | 24.97436 | 46.93675 | 36263 ft | 397 kts | 241° |
| 2026-05-05 20:10 | 24.94790 | 46.88361 | 36257 ft | 397 kts | 242° |
| 2026-05-05 20:10 | 24.92152 | 46.83065 | 36250 ft | 397 kts | 241° |
| 2026-05-05 20:11 | 24.89519 | 46.77789 | 36245 ft | 391 kts | 241° |
| 2026-05-05 20:11 | 24.87089 | 46.72442 | 36242 ft | 391 kts | 244° |
| 2026-05-05 20:12 | 24.84766 | 46.67090 | 36241 ft | 386 kts | 244° |
| 2026-05-05 20:12 | 24.82458 | 46.61783 | 36247 ft | 384 kts | 244° |
| 2026-05-05 20:13 | 24.80166 | 46.56504 | 36251 ft | 385 kts | 244° |
| 2026-05-05 20:13 | 24.77851 | 46.51187 | 36260 ft | 384 kts | 244° |
| 2026-05-05 20:14 | 24.75541 | 46.45890 | 36268 ft | 386 kts | 244° |
| 2026-05-05 20:14 | 24.73222 | 46.40567 | 36283 ft | 386 kts | 244° |
| 2026-05-05 20:15 | 24.70907 | 46.35261 | 36298 ft | 386 kts | 244° |
| 2026-05-05 20:15 | 24.68583 | 46.29948 | 36300 ft | 386 kts | 244° |
| 2026-05-05 20:16 | 24.66272 | 46.24668 | 36299 ft | 386 kts | 244° |
| 2026-05-05 20:16 | 24.63943 | 46.19350 | 36296 ft | 386 kts | 244° |
| 2026-05-05 20:17 | 24.61613 | 46.14039 | 36290 ft | 386 kts | 244° |
| 2026-05-05 20:17 | 24.59277 | 46.08715 | 36281 ft | 386 kts | 244° |
| 2026-05-05 20:18 | 24.56949 | 46.03425 | 36279 ft | 387 kts | 244° |
| 2026-05-05 20:18 | 24.54620 | 45.98135 | 36277 ft | 387 kts | 244° |
| 2026-05-05 20:19 | 24.52282 | 45.92827 | 36277 ft | 387 kts | 244° |
| 2026-05-05 20:19 | 24.49931 | 45.87496 | 36281 ft | 389 kts | 244° |
| 2026-05-05 20:20 | 24.47552 | 45.82106 | 36278 ft | 397 kts | 244° |
| 2026-05-05 20:20 | 24.45152 | 45.76677 | 36280 ft | 398 kts | 244° |
| 2026-05-05 20:21 | 24.42719 | 45.71201 | 36278 ft | 398 kts | 244° |
| 2026-05-05 20:21 | 24.40305 | 45.65770 | 36277 ft | 399 kts | 243° |
| 2026-05-05 20:22 | 24.37869 | 45.60292 | 36280 ft | 398 kts | 244° |
| 2026-05-05 20:22 | 24.35443 | 45.54852 | 36285 ft | 399 kts | 244° |
| 2026-05-05 20:23 | 24.33007 | 45.49384 | 36286 ft | 399 kts | 244° |
| 2026-05-05 20:23 | 24.30582 | 45.43955 | 36287 ft | 400 kts | 244° |
| 2026-05-05 20:24 | 24.28125 | 45.38459 | 36293 ft | 400 kts | 244° |
| 2026-05-05 20:24 | 24.25694 | 45.33025 | 36301 ft | 399 kts | 243° |
| 2026-05-05 20:25 | 24.23247 | 45.27566 | 36305 ft | 399 kts | 243° |
| 2026-05-05 20:25 | 24.20793 | 45.22092 | 36314 ft | 400 kts | 243° |
| 2026-05-05 20:26 | 24.18354 | 45.16663 | 36318 ft | 400 kts | 243° |
| 2026-05-05 20:26 | 24.15899 | 45.11198 | 36322 ft | 400 kts | 243° |
| 2026-05-05 20:27 | 24.13453 | 45.05770 | 36324 ft | 400 kts | 243° |
| 2026-05-05 20:27 | 24.10996 | 45.00314 | 36328 ft | 400 kts | 243° |
| 2026-05-05 20:28 | 24.08531 | 44.94854 | 36335 ft | 400 kts | 243° |
| 2026-05-05 20:28 | 24.06098 | 44.89466 | 36339 ft | 392 kts | 243° |
| 2026-05-05 20:29 | 24.03689 | 44.84138 | 36343 ft | 390 kts | 243° |
| 2026-05-05 20:29 | 24.01293 | 44.78847 | 36347 ft | 390 kts | 243° |
| 2026-05-05 20:30 | 23.98895 | 44.73556 | 36352 ft | 390 kts | 243° |
| 2026-05-05 20:30 | 23.96476 | 44.68226 | 36354 ft | 390 kts | 243° |
| 2026-05-05 20:31 | 23.94068 | 44.62923 | 36097 ft | 390 kts | 243° |
| 2026-05-05 20:31 | 23.91859 | 44.57549 | 36087 ft | 390 kts | 247° |
| 2026-05-05 20:32 | 23.89908 | 44.52010 | 36086 ft | 390 kts | 248° |
| 2026-05-05 20:32 | 23.87962 | 44.46491 | 36085 ft | 390 kts | 248° |
| 2026-05-05 20:33 | 23.86020 | 44.40980 | 36080 ft | 391 kts | 248° |
| 2026-05-05 20:33 | 23.84071 | 44.35452 | 36076 ft | 390 kts | 248° |
| 2026-05-05 20:34 | 23.82120 | 44.29931 | 36079 ft | 390 kts | 248° |
| 2026-05-05 20:34 | 23.80169 | 44.24408 | 36077 ft | 390 kts | 248° |
| 2026-05-05 20:35 | 23.78217 | 44.18888 | 36077 ft | 390 kts | 248° |
| 2026-05-05 20:35 | 23.76265 | 44.13376 | 36076 ft | 391 kts | 248° |
| 2026-05-05 20:36 | 23.74322 | 44.07895 | 36075 ft | 390 kts | 248° |
| 2026-05-05 20:36 | 23.72357 | 44.02363 | 36068 ft | 390 kts | 248° |
| 2026-05-05 20:37 | 23.70575 | 43.97349 | 36061 ft | 391 kts | 248° |
| 2026-05-05 20:37 | 23.68610 | 43.91835 | 36064 ft | 391 kts | 248° |
| 2026-05-05 20:38 | 23.66647 | 43.86330 | 36067 ft | 391 kts | 248° |
| 2026-05-05 20:38 | 23.64674 | 43.80800 | 36078 ft | 391 kts | 248° |
| 2026-05-05 20:39 | 23.62704 | 43.75289 | 36084 ft | 390 kts | 248° |
| 2026-05-05 20:39 | 23.60738 | 43.69792 | 36091 ft | 391 kts | 248° |
| 2026-05-05 20:40 | 23.58762 | 43.64279 | 36089 ft | 391 kts | 248° |
| 2026-05-05 20:40 | 23.56783 | 43.58764 | 36086 ft | 391 kts | 248° |
| 2026-05-05 20:41 | 23.54809 | 43.53267 | 36083 ft | 390 kts | 248° |
| 2026-05-05 20:41 | 23.52833 | 43.47774 | 36078 ft | 391 kts | 248° |
| 2026-05-05 20:42 | 23.49806 | 43.39373 | 36082 ft | 391 kts | 248° |
| 2026-05-05 20:42 | 23.45846 | 43.28403 | 36090 ft | 391 kts | 247° |
| 2026-05-05 20:43 | 23.38118 | 43.07090 | 36095 ft | 391 kts | 247° |
| 2026-05-05 20:43 | 23.30092 | 42.85088 | 36094 ft | 392 kts | 248° |
| 2026-05-05 20:44 | 23.22068 | 42.63193 | 36088 ft | 392 kts | 248° |
| 2026-05-05 20:44 | 23.14008 | 42.41309 | 36082 ft | 392 kts | 247° |
| 2026-05-05 20:45 | 23.02129 | 42.08202 | 36081 ft | 392 kts | 248° |
| 2026-05-05 20:45 | 22.94206 | 41.86195 | 36079 ft | 392 kts | 248° |
| 2026-05-05 20:46 | 22.86275 | 41.64209 | 36089 ft | 393 kts | 248° |
| 2026-05-05 20:46 | 22.81825 | 41.51945 | 36103 ft | 394 kts | 248° |
| 2026-05-05 20:47 | 22.79821 | 41.46428 | 36110 ft | 394 kts | 248° |
| 2026-05-05 20:47 | 22.77825 | 41.40941 | 36112 ft | 394 kts | 248° |
| 2026-05-05 20:48 | 22.75816 | 41.35424 | 36115 ft | 394 kts | 248° |
| 2026-05-05 20:48 | 22.73810 | 41.29927 | 36117 ft | 394 kts | 247° |
| 2026-05-05 20:49 | 22.71803 | 41.24424 | 36114 ft | 393 kts | 247° |
| 2026-05-05 20:49 | 22.69801 | 41.18947 | 36052 ft | 394 kts | 247° |
| 2026-05-05 20:50 | 22.68782 | 41.16166 | 35760 ft | 393 kts | 247° |
| 2026-05-05 20:50 | 22.67786 | 41.13448 | 35481 ft | 390 kts | 247° |
| 2026-05-05 20:50 | 22.66788 | 41.10722 | 35199 ft | 387 kts | 247° |
| 2026-05-05 20:50 | 22.65798 | 41.08023 | 34919 ft | 385 kts | 247° |
| 2026-05-05 20:51 | 22.64821 | 41.05365 | 34644 ft | 385 kts | 247° |
| 2026-05-05 20:51 | 22.63825 | 41.02657 | 34364 ft | 385 kts | 247° |
| 2026-05-05 20:51 | 22.62844 | 40.99985 | 34088 ft | 386 kts | 247° |
| 2026-05-05 20:51 | 22.61847 | 40.97277 | 33809 ft | 387 kts | 247° |
| 2026-05-05 20:52 | 22.60858 | 40.94592 | 33534 ft | 387 kts | 247° |
| 2026-05-05 20:52 | 22.59862 | 40.91889 | 33258 ft | 388 kts | 247° |
| 2026-05-05 20:52 | 22.58857 | 40.89162 | 32979 ft | 389 kts | 248° |
| 2026-05-05 20:52 | 22.57851 | 40.86433 | 32715 ft | 390 kts | 247° |
| 2026-05-05 20:53 | 22.56855 | 40.83736 | 32471 ft | 391 kts | 248° |
| 2026-05-05 20:53 | 22.55848 | 40.81005 | 32224 ft | 392 kts | 247° |
| 2026-05-05 20:53 | 22.54833 | 40.78262 | 31977 ft | 393 kts | 248° |
| 2026-05-05 20:53 | 22.53816 | 40.75509 | 31729 ft | 394 kts | 248° |
| 2026-05-05 20:54 | 22.52801 | 40.72767 | 31483 ft | 395 kts | 248° |
| 2026-05-05 20:54 | 22.51778 | 40.70002 | 31238 ft | 395 kts | 247° |
| 2026-05-05 20:54 | 22.50762 | 40.67259 | 30994 ft | 396 kts | 248° |
| 2026-05-05 20:54 | 22.49743 | 40.64506 | 30750 ft | 397 kts | 248° |
| 2026-05-05 20:55 | 22.48706 | 40.61713 | 30504 ft | 398 kts | 248° |
| 2026-05-05 20:55 | 22.47684 | 40.58957 | 30256 ft | 399 kts | 248° |
| 2026-05-05 20:55 | 22.46644 | 40.56156 | 30008 ft | 400 kts | 248° |
| 2026-05-05 20:55 | 22.45606 | 40.53363 | 29764 ft | 401 kts | 248° |
| 2026-05-05 20:56 | 22.44569 | 40.50572 | 29522 ft | 401 kts | 248° |
| 2026-05-05 20:56 | 22.43544 | 40.47816 | 29279 ft | 402 kts | 248° |
| 2026-05-05 20:56 | 22.42491 | 40.44989 | 29031 ft | 404 kts | 248° |
| 2026-05-05 20:56 | 22.41442 | 40.42169 | 28786 ft | 405 kts | 248° |
| 2026-05-05 20:57 | 22.40390 | 40.39346 | 28535 ft | 405 kts | 248° |
| 2026-05-05 20:57 | 22.39341 | 40.36531 | 28291 ft | 404 kts | 248° |
| 2026-05-05 20:57 | 22.38297 | 40.33736 | 28052 ft | 403 kts | 247° |
| 2026-05-05 20:57 | 22.37253 | 40.30940 | 27808 ft | 401 kts | 247° |
| 2026-05-05 20:58 | 22.36211 | 40.28149 | 27571 ft | 400 kts | 247° |
| 2026-05-05 20:58 | 22.35180 | 40.25389 | 27334 ft | 399 kts | 247° |
| 2026-05-05 20:58 | 22.34141 | 40.22608 | 27090 ft | 397 kts | 247° |
| 2026-05-05 20:58 | 22.33106 | 40.19844 | 26845 ft | 396 kts | 247° |
| 2026-05-05 20:59 | 22.32074 | 40.17083 | 26599 ft | 396 kts | 247° |
| 2026-05-05 20:59 | 22.31044 | 40.14339 | 26356 ft | 396 kts | 247° |
| 2026-05-05 20:59 | 22.30015 | 40.11595 | 26110 ft | 394 kts | 247° |
| 2026-05-05 20:59 | 22.28997 | 40.08883 | 25870 ft | 394 kts | 247° |
| 2026-05-05 21:00 | 22.27960 | 40.06134 | 25629 ft | 394 kts | 246° |
| 2026-05-05 21:00 | 22.26822 | 40.03455 | 25387 ft | 392 kts | 243° |
| 2026-05-05 21:00 | 22.25545 | 40.00867 | 25142 ft | 392 kts | 240° |
| 2026-05-05 21:00 | 22.24131 | 39.98369 | 24898 ft | 391 kts | 237° |
| 2026-05-05 21:01 | 22.22447 | 39.96050 | 24643 ft | 391 kts | 226° |
| 2026-05-05 21:01 | 22.20380 | 39.94172 | 24408 ft | 393 kts | 216° |
| 2026-05-05 21:01 | 22.18004 | 39.92755 | 24162 ft | 386 kts | 205° |
| 2026-05-05 21:01 | 22.15480 | 39.91867 | 23842 ft | 380 kts | 195° |
| 2026-05-05 21:02 | 22.12875 | 39.91519 | 23503 ft | 375 kts | 185° |
| 2026-05-05 21:02 | 22.10257 | 39.91626 | 23153 ft | 371 kts | 177° |
| 2026-05-05 21:02 | 22.07745 | 39.92087 | 22819 ft | 366 kts | 172° |
| 2026-05-05 21:02 | 22.05252 | 39.92653 | 22485 ft | 359 kts | 172° |
| 2026-05-05 21:03 | 22.02821 | 39.93200 | 22160 ft | 352 kts | 173° |
| 2026-05-05 21:03 | 22.00432 | 39.93621 | 21844 ft | 344 kts | 175° |
| 2026-05-05 21:03 | 21.98091 | 39.93902 | 21532 ft | 336 kts | 180° |
| 2026-05-05 21:03 | 21.95782 | 39.93827 | 21288 ft | 326 kts | 190° |
| 2026-05-05 21:04 | 21.93583 | 39.93309 | 21046 ft | 323 kts | 199° |
| 2026-05-05 21:04 | 21.91530 | 39.92380 | 20805 ft | 321 kts | 209° |
| 2026-05-05 21:04 | 21.89643 | 39.91049 | 20560 ft | 319 kts | 219° |
| 2026-05-05 21:04 | 21.88061 | 39.89436 | 20199 ft | 317 kts | 228° |
| 2026-05-05 21:05 | 21.86760 | 39.87529 | 19756 ft | 318 kts | 237° |
| 2026-05-05 21:05 | 21.85790 | 39.85391 | 19296 ft | 320 kts | 247° |
| 2026-05-05 21:05 | 21.85185 | 39.83078 | 18842 ft | 322 kts | 257° |
| 2026-05-05 21:05 | 21.84978 | 39.80695 | 18415 ft | 324 kts | 266° |
| 2026-05-05 21:06 | 21.85173 | 39.78280 | 17988 ft | 327 kts | 277° |
| 2026-05-05 21:06 | 21.85788 | 39.75893 | 17560 ft | 330 kts | 287° |
| 2026-05-05 21:06 | 21.86790 | 39.73696 | 17127 ft | 333 kts | 298° |
| 2026-05-05 21:06 | 21.88180 | 39.71681 | 16695 ft | 336 kts | 308° |
| 2026-05-05 21:07 | 21.89726 | 39.69785 | 16309 ft | 333 kts | 305° |
| 2026-05-05 21:07 | 21.91025 | 39.67778 | 15916 ft | 327 kts | 296° |
| 2026-05-05 21:07 | 21.91970 | 39.65562 | 15517 ft | 321 kts | 284° |
| 2026-05-05 21:07 | 21.92503 | 39.63264 | 15125 ft | 316 kts | 276° |
| 2026-05-05 21:08 | 21.92835 | 39.60955 | 14924 ft | 314 kts | 274° |
| 2026-05-05 21:08 | 21.93135 | 39.58631 | 14927 ft | 315 kts | 274° |
| 2026-05-05 21:08 | 21.93439 | 39.56288 | 14928 ft | 315 kts | 274° |
| 2026-05-05 21:08 | 21.93747 | 39.53952 | 14912 ft | 315 kts | 274° |
| 2026-05-05 21:09 | 21.93987 | 39.51640 | 14914 ft | 312 kts | 267° |
| 2026-05-05 21:09 | 21.93811 | 39.49336 | 14903 ft | 308 kts | 256° |
| 2026-05-05 21:09 | 21.93200 | 39.47133 | 14675 ft | 303 kts | 244° |
| 2026-05-05 21:09 | 21.92320 | 39.45087 | 14438 ft | 301 kts | 242° |
| 2026-05-05 21:10 | 21.91406 | 39.43070 | 14198 ft | 300 kts | 241° |
| 2026-05-05 21:10 | 21.90486 | 39.41043 | 13960 ft | 299 kts | 242° |
| 2026-05-05 21:10 | 21.89586 | 39.39045 | 13735 ft | 298 kts | 241° |
| 2026-05-05 21:10 | 21.88685 | 39.37036 | 13488 ft | 298 kts | 241° |
| 2026-05-05 21:11 | 21.87791 | 39.35036 | 13254 ft | 297 kts | 241° |
| 2026-05-05 21:11 | 21.86897 | 39.33039 | 13055 ft | 296 kts | 241° |
| 2026-05-05 21:11 | 21.86008 | 39.31052 | 13001 ft | 290 kts | 241° |
| 2026-05-05 21:11 | 21.85160 | 39.29150 | 12995 ft | 274 kts | 241° |
| 2026-05-05 21:12 | 21.84353 | 39.27336 | 12981 ft | 260 kts | 241° |
| 2026-05-05 21:12 | 21.83573 | 39.25592 | 12992 ft | 258 kts | 241° |
| 2026-05-05 21:12 | 21.82789 | 39.23842 | 12998 ft | 257 kts | 240° |
| 2026-05-05 21:12 | 21.81950 | 39.22177 | 13004 ft | 255 kts | 234° |
| 2026-05-05 21:13 | 21.80905 | 39.20598 | 12857 ft | 254 kts | 228° |
| 2026-05-05 21:13 | 21.79763 | 39.19163 | 12617 ft | 252 kts | 226° |
| 2026-05-05 21:13 | 21.78614 | 39.17753 | 12380 ft | 251 kts | 226° |
| 2026-05-05 21:13 | 21.77459 | 39.16338 | 12138 ft | 251 kts | 227° |
| 2026-05-05 21:14 | 21.76316 | 39.14936 | 11897 ft | 250 kts | 227° |
| 2026-05-05 21:14 | 21.75164 | 39.13521 | 11655 ft | 250 kts | 227° |
| 2026-05-05 21:14 | 21.74031 | 39.12128 | 11416 ft | 249 kts | 227° |
| 2026-05-05 21:14 | 21.72890 | 39.10724 | 11174 ft | 248 kts | 227° |
| 2026-05-05 21:15 | 21.71745 | 39.09316 | 10932 ft | 248 kts | 228° |
| 2026-05-05 21:15 | 21.70615 | 39.07927 | 10693 ft | 247 kts | 228° |
| 2026-05-05 21:15 | 21.69483 | 39.06535 | 10451 ft | 247 kts | 228° |
| 2026-05-05 21:15 | 21.68359 | 39.05154 | 10218 ft | 247 kts | 228° |
| 2026-05-05 21:16 | 21.67110 | 39.03920 | 10006 ft | 246 kts | 208° |
| 2026-05-05 21:16 | 21.65442 | 39.03426 | 9995 ft | 249 kts | 181° |
| 2026-05-05 21:16 | 21.63756 | 39.03771 | 10002 ft | 252 kts | 162° |
| 2026-05-05 21:16 | 21.62103 | 39.04429 | 10002 ft | 252 kts | 161° |
| 2026-05-05 21:17 | 21.60456 | 39.05093 | 9996 ft | 251 kts | 161° |
| 2026-05-05 21:17 | 21.58814 | 39.05747 | 9991 ft | 251 kts | 162° |
| 2026-05-05 21:17 | 21.57168 | 39.06398 | 9993 ft | 251 kts | 162° |
| 2026-05-05 21:17 | 21.55519 | 39.07046 | 9995 ft | 251 kts | 162° |
| 2026-05-05 21:18 | 21.53873 | 39.07690 | 10001 ft | 251 kts | 162° |
| 2026-05-05 21:18 | 21.52233 | 39.08333 | 9997 ft | 250 kts | 161° |
| 2026-05-05 21:18 | 21.50583 | 39.08983 | 9990 ft | 250 kts | 161° |
| 2026-05-05 21:18 | 21.48968 | 39.09622 | 9968 ft | 248 kts | 161° |
| 2026-05-05 21:19 | 21.47358 | 39.10258 | 9727 ft | 246 kts | 161° |
| 2026-05-05 21:19 | 21.45742 | 39.10898 | 9347 ft | 248 kts | 161° |
| 2026-05-05 21:19 | 21.44114 | 39.11541 | 9004 ft | 249 kts | 161° |
| 2026-05-05 21:19 | 21.42482 | 39.12186 | 8673 ft | 249 kts | 161° |
| 2026-05-05 21:20 | 21.40868 | 39.12825 | 8342 ft | 249 kts | 161° |
| 2026-05-05 21:20 | 21.39237 | 39.13469 | 8009 ft | 249 kts | 160° |
| 2026-05-05 21:20 | 21.37604 | 39.14114 | 7684 ft | 249 kts | 160° |
| 2026-05-05 21:20 | 21.35979 | 39.14756 | 7357 ft | 249 kts | 160° |
| 2026-05-05 21:21 | 21.34352 | 39.15398 | 7028 ft | 249 kts | 159° |
| 2026-05-05 21:21 | 21.32721 | 39.16043 | 6703 ft | 249 kts | 159° |
| 2026-05-05 21:21 | 21.31088 | 39.16689 | 6385 ft | 248 kts | 159° |
| 2026-05-05 21:21 | 21.29482 | 39.17324 | 6074 ft | 248 kts | 159° |
| 2026-05-05 21:22 | 21.27858 | 39.17966 | 5770 ft | 248 kts | 159° |
| 2026-05-05 21:22 | 21.26234 | 39.18622 | 5454 ft | 247 kts | 154° |
| 2026-05-05 21:22 | 21.24908 | 39.19722 | 5085 ft | 244 kts | 118° |
| 2026-05-05 21:22 | 21.24479 | 39.21419 | 4982 ft | 237 kts | 84° |
| 2026-05-05 21:23 | 21.24906 | 39.23122 | 4991 ft | 236 kts | 66° |
| 2026-05-05 21:23 | 21.25516 | 39.24735 | 4983 ft | 236 kts | 66° |
| 2026-05-05 21:23 | 21.26112 | 39.26365 | 4972 ft | 235 kts | 67° |
| 2026-05-05 21:23 | 21.26827 | 39.27937 | 4965 ft | 232 kts | 47° |
| 2026-05-05 21:24 | 21.28174 | 39.28827 | 4975 ft | 230 kts | 11° |
| 2026-05-05 21:24 | 21.29757 | 39.28746 | 4984 ft | 231 kts | 342° |
| 2026-05-05 21:24 | 21.31274 | 39.28121 | 4983 ft | 231 kts | 340° |
| 2026-05-05 21:24 | 21.32780 | 39.27506 | 4980 ft | 232 kts | 340° |
| 2026-05-05 21:25 | 21.34292 | 39.26907 | 4982 ft | 231 kts | 341° |
| 2026-05-05 21:25 | 21.35805 | 39.26309 | 4983 ft | 232 kts | 341° |
| 2026-05-05 21:25 | 21.37323 | 39.25709 | 4946 ft | 227 kts | 340° |
| 2026-05-05 21:25 | 21.38772 | 39.25136 | 4584 ft | 220 kts | 340° |
| 2026-05-05 21:26 | 21.40201 | 39.24569 | 4276 ft | 211 kts | 341° |
| 2026-05-05 21:26 | 21.41553 | 39.24033 | 4040 ft | 204 kts | 341° |
| 2026-05-05 21:26 | 21.42876 | 39.23509 | 3836 ft | 202 kts | 341° |
| 2026-05-05 21:26 | 21.44143 | 39.23006 | 3714 ft | 187 kts | 341° |
| 2026-05-05 21:27 | 21.45330 | 39.22535 | 3478 ft | 174 kts | 341° |
| 2026-05-05 21:27 | 21.46427 | 39.22100 | 3303 ft | 159 kts | 342° |
| 2026-05-05 21:27 | 21.47405 | 39.21713 | 3292 ft | 146 kts | 342° |
| 2026-05-05 21:27 | 21.48371 | 39.21331 | 3313 ft | 145 kts | 342° |
| 2026-05-05 21:28 | 21.49311 | 39.20961 | 3340 ft | 145 kts | 342° |
| 2026-05-05 21:28 | 21.50281 | 39.20579 | 3333 ft | 145 kts | 342° |
| 2026-05-05 21:28 | 21.51227 | 39.20205 | 3179 ft | 145 kts | 342° |
| 2026-05-05 21:28 | 21.52174 | 39.19832 | 2991 ft | 144 kts | 342° |
| 2026-05-05 21:29 | 21.53121 | 39.19457 | 2808 ft | 142 kts | 342° |
| 2026-05-05 21:29 | 21.54041 | 39.19094 | 2652 ft | 141 kts | 342° |
| 2026-05-05 21:29 | 21.54973 | 39.18726 | 2464 ft | 140 kts | 341° |
| 2026-05-05 21:29 | 21.55872 | 39.18370 | 2289 ft | 136 kts | 342° |
| 2026-05-05 21:30 | 21.56754 | 39.18022 | 2103 ft | 134 kts | 342° |
| 2026-05-05 21:30 | 21.57636 | 39.17674 | 1926 ft | 133 kts | 342° |
| 2026-05-05 21:30 | 21.58509 | 39.17329 | 1758 ft | 133 kts | 342° |
| 2026-05-05 21:30 | 21.59370 | 39.16990 | 1591 ft | 132 kts | 342° |
| 2026-05-05 21:31 | 21.60238 | 39.16647 | 1421 ft | 132 kts | 342° |
| 2026-05-05 21:31 | 21.61106 | 39.16304 | 1251 ft | 131 kts | 342° |
| 2026-05-05 21:31 | 21.61962 | 39.15966 | 1087 ft | 131 kts | 341° |
| 2026-05-05 21:31 | 21.62821 | 39.15627 | 920 ft | 131 kts | 342° |
| 2026-05-05 21:32 | 21.63669 | 39.15293 | 754 ft | 130 kts | 341° |
| 2026-05-05 21:32 | 21.64527 | 39.14954 | 586 ft | 130 kts | 341° |
| 2026-05-05 21:32 | 21.65373 | 39.14619 | 415 ft | 129 kts | 340° |
| 2026-05-05 21:32 | 21.66215 | 39.14271 | 255 ft | 129 kts | 340° |
| 2026-05-05 21:33 | 21.67058 | 39.13954 | 114 ft | 129 kts | 341° |
| 2026-05-05 21:33 | 21.67863 | 39.13644 | 55 ft | 95 kts | 338° |
| 2026-05-05 21:33 | 21.68244 | 39.13480 | 55 ft | 35 kts | 341° |
| 2026-05-05 21:33 | 21.68438 | 39.13425 | 55 ft | 24 kts | 354° |
| 2026-05-05 21:34 | 21.68592 | 39.13421 | 55 ft | 9 kts | 1° |
| 2026-05-05 21:34 | 21.68662 | 39.13431 | 55 ft | 10 kts | 9° |
| 2026-05-05 21:34 | 21.68737 | 39.13446 | 55 ft | 11 kts | 12° |
| 2026-05-05 21:34 | 21.68815 | 39.13460 | 55 ft | 11 kts | 7° |
| 2026-05-05 21:35 | 21.68896 | 39.13447 | 55 ft | 11 kts | 339° |
| 2026-05-05 21:35 | 21.68975 | 39.13416 | 55 ft | 12 kts | 340° |
| 2026-05-05 21:35 | 21.69058 | 39.13385 | 55 ft | 12 kts | 341° |
| 2026-05-05 21:35 | 21.69141 | 39.13355 | 55 ft | 12 kts | 341° |
| 2026-05-05 21:36 | 21.69225 | 39.13322 | 55 ft | 12 kts | 339° |
| 2026-05-05 21:36 | 21.69308 | 39.13287 | 55 ft | 12 kts | 343° |
| 2026-05-05 21:36 | 21.69379 | 39.13321 | 55 ft | 12 kts | 68° |
| 2026-05-05 21:36 | 21.69411 | 39.13411 | 55 ft | 12 kts | 68° |
| 2026-05-05 21:37 | 21.69471 | 39.13470 | 55 ft | 12 kts | 359° |
| 2026-05-05 21:37 | 21.69552 | 39.13436 | 55 ft | 12 kts | 333° |
| 2026-05-05 21:37 | 21.69633 | 39.13396 | 55 ft | 12 kts | 337° |
| 2026-05-05 21:37 | 21.69716 | 39.13359 | 55 ft | 13 kts | 338° |
| 2026-05-05 21:38 | 21.69759 | 39.13321 | 55 ft | 7 kts | 264° |
| 2026-05-05 21:38 | 21.69739 | 39.13271 | 55 ft | 7 kts | 248° |
| 2026-05-05 21:38 | 21.69729 | 39.13243 | 55 ft | 0 kts | 248° |